createdAt,value
2018-05-14T00:01:19.060Z,929.94
2018-05-14T00:02:50.871Z,929.95
2018-05-14T00:04:22.933Z,929.99
2018-05-14T00:05:54.494Z,930.01
2018-05-14T00:07:26.306Z,930.00
2018-05-14T00:08:58.118Z,930.08
2018-05-14T00:10:30.079Z,930.08
2018-05-14T00:12:01.741Z,930.22
2018-05-14T00:13:33.553Z,930.18
2018-05-14T00:15:05.365Z,930.14
2018-05-14T00:16:37.276Z,930.10
2018-05-14T00:18:08.988Z,930.08
2018-05-14T00:19:40.798Z,930.01
2018-05-14T00:21:12.610Z,930.02
2018-05-14T00:22:44.421Z,930.06
2018-05-14T00:24:16.233Z,930.09
2018-05-14T00:25:48.044Z,930.15
2018-05-14T00:27:19.855Z,930.18
2018-05-14T00:28:51.668Z,930.17
2018-05-14T00:30:23.478Z,930.17
2018-05-14T00:31:55.289Z,930.20
2018-05-14T00:33:27.101Z,930.17
2018-05-14T00:34:59.413Z,930.14
2018-05-14T00:36:30.723Z,930.17
2018-05-14T00:38:02.537Z,930.15
2018-05-14T00:39:34.347Z,930.21
2018-05-14T00:41:06.159Z,930.28
2018-05-14T00:42:37.970Z,930.27
2018-05-14T00:44:09.782Z,930.29
2018-05-14T00:45:41.593Z,930.36
2018-05-14T00:47:13.405Z,930.40
2018-05-14T00:48:45.251Z,930.39
2018-05-14T00:50:17.028Z,930.45
2018-05-14T00:51:48.840Z,930.43
2018-05-14T00:53:20.752Z,930.40
2018-05-14T00:54:52.464Z,930.45
2018-05-14T00:56:24.275Z,930.46
2018-05-14T00:57:56.087Z,930.45
2018-05-14T00:59:27.898Z,930.43
2018-05-14T01:00:59.714Z,930.41
2018-05-14T01:02:31.522Z,930.38
2018-05-14T01:04:03.334Z,930.41
2018-05-14T01:05:35.147Z,930.39
2018-05-14T01:07:06.957Z,930.37
2018-05-14T01:08:38.813Z,930.30
2018-05-14T01:10:10.591Z,930.27
2018-05-14T01:11:42.493Z,930.22
2018-05-14T01:13:14.204Z,930.20
2018-05-14T01:14:46.016Z,930.19
2018-05-14T01:16:52.540Z,930.11
2018-05-14T01:17:49.638Z,930.20
2018-05-14T01:19:21.452Z,930.20
2018-05-14T01:20:53.261Z,930.28
2018-05-14T01:22:25.072Z,930.22
2018-05-14T01:23:56.884Z,930.27
2018-05-14T01:25:28.694Z,930.22
2018-05-14T01:27:00.506Z,930.19
2018-05-14T01:28:32.618Z,930.15
2018-05-14T01:30:04.132Z,930.09
2018-05-14T01:31:35.941Z,930.04
2018-05-14T01:33:07.756Z,930.12
2018-05-14T01:34:39.664Z,930.14
2018-05-14T01:36:11.375Z,930.14
2018-05-14T01:37:43.186Z,930.19
2018-05-14T01:39:14.998Z,930.22
2018-05-14T01:41:00.977Z,930.24
2018-05-14T01:42:18.626Z,930.22
2018-05-14T01:43:50.431Z,930.23
2018-05-14T01:45:22.243Z,930.22
2018-05-14T01:46:54.154Z,930.17
2018-05-14T01:48:26.472Z,930.18
2018-05-14T01:49:57.679Z,930.07
2018-05-14T01:51:55.773Z,930.07
2018-05-14T01:53:01.302Z,930.06
2018-05-14T01:54:33.105Z,930.13
2018-05-14T01:56:04.916Z,930.06
2018-05-14T01:57:36.730Z,930.09
2018-05-14T01:59:08.641Z,930.04
2018-05-14T02:00:40.354Z,930.04
2018-05-14T02:02:13.238Z,929.97
2018-05-14T02:03:43.995Z,929.99
2018-05-14T02:05:15.889Z,929.98
2018-05-14T02:06:47.675Z,930.00
2018-05-14T02:08:19.411Z,930.08
2018-05-14T02:09:51.223Z,930.09
2018-05-14T02:11:23.185Z,930.04
2018-05-14T02:12:54.847Z,930.05
2018-05-14T02:14:26.657Z,930.05
2018-05-14T02:15:58.467Z,930.07
2018-05-14T02:17:30.278Z,930.01
2018-05-14T02:19:02.090Z,930.04
2018-05-14T02:20:33.900Z,929.97
2018-05-14T02:22:05.715Z,929.98
2018-05-14T02:23:37.622Z,929.99
2018-05-14T02:25:09.334Z,929.88
2018-05-14T02:26:41.145Z,929.93
2018-05-14T02:28:12.956Z,929.88
2018-05-14T02:29:44.867Z,929.93
2018-05-14T02:31:16.580Z,929.81
2018-05-14T02:32:48.392Z,929.84
2018-05-14T02:34:20.201Z,929.90
2018-05-14T02:35:52.013Z,929.88
2018-05-14T02:37:23.823Z,929.99
2018-05-14T02:38:55.633Z,929.95
2018-05-14T02:40:27.445Z,929.97
2018-05-14T02:41:59.357Z,929.94
2018-05-14T02:43:31.068Z,929.88
2018-05-14T02:45:02.877Z,929.93
2018-05-14T02:46:34.689Z,929.89
2018-05-14T02:48:06.501Z,929.82
2018-05-14T02:49:38.371Z,929.81
2018-05-14T02:51:10.929Z,929.77
2018-05-14T02:52:41.941Z,929.75
2018-05-14T02:54:13.746Z,929.76
2018-05-14T02:55:45.567Z,929.72
2018-05-14T02:57:17.367Z,929.67
2018-05-14T02:58:49.191Z,929.61
2018-05-14T03:00:21.193Z,929.59
2018-05-14T03:01:52.800Z,929.58
2018-05-14T03:03:24.611Z,929.56
2018-05-14T03:04:56.658Z,929.58
2018-05-14T03:06:28.235Z,929.58
2018-05-14T03:08:00.047Z,929.55
2018-05-14T03:09:31.856Z,929.54
2018-05-14T03:11:03.668Z,929.50
2018-05-14T03:12:35.479Z,929.50
2018-05-14T03:14:07.291Z,929.47
2018-05-14T03:15:39.106Z,929.50
2018-05-14T03:17:10.915Z,929.45
2018-05-14T03:18:42.824Z,929.47
2018-05-14T03:20:14.534Z,929.42
2018-05-14T03:23:25.030Z,929.42
2018-05-14T03:26:22.389Z,929.44
2018-05-14T03:27:53.591Z,929.37
2018-05-14T03:29:26.295Z,929.33
2018-05-14T03:32:29.631Z,929.34
2018-05-14T03:34:00.836Z,929.33
2018-05-14T03:35:32.647Z,929.28
2018-05-14T03:37:05.639Z,929.24
2018-05-14T03:38:36.270Z,929.20
2018-05-14T03:40:08.080Z,929.11
2018-05-14T03:41:39.891Z,929.15
2018-05-14T03:43:11.707Z,929.14
2018-05-14T03:44:43.514Z,929.15
2018-05-14T03:46:15.324Z,929.14
2018-05-14T03:47:47.135Z,929.29
2018-05-14T03:49:18.945Z,929.34
2018-05-14T03:50:50.757Z,929.38
2018-05-14T03:52:22.568Z,929.36
2018-05-14T03:53:54.378Z,929.38
2018-05-14T03:55:26.290Z,929.36
2018-05-14T03:56:58.000Z,929.31
2018-05-14T03:58:29.810Z,929.34
2018-05-14T04:00:01.620Z,929.30
2018-05-14T04:01:33.531Z,929.26
2018-05-14T04:03:05.246Z,929.23
2018-05-14T04:04:37.052Z,929.24
2018-05-14T04:06:08.863Z,929.22
2018-05-14T04:07:40.673Z,929.18
2018-05-14T04:11:09.969Z,929.17
2018-05-14T04:12:16.106Z,929.15
2018-05-14T04:13:48.168Z,929.17
2018-05-14T04:15:19.728Z,929.10
2018-05-14T04:16:51.542Z,929.09
2018-05-14T04:18:23.351Z,929.11
2018-05-14T04:19:55.161Z,929.14
2018-05-14T04:21:26.972Z,929.20
2018-05-14T04:22:58.783Z,929.13
2018-05-14T04:24:30.607Z,929.12
2018-05-14T04:26:02.411Z,929.08
2018-05-14T04:27:34.216Z,929.08
2018-05-14T04:29:06.027Z,929.17
2018-05-14T04:30:37.839Z,929.17
2018-05-14T04:32:09.850Z,929.13
2018-05-14T04:33:41.470Z,929.02
2018-05-14T04:35:13.271Z,928.97
2018-05-14T04:36:45.082Z,928.97
2018-05-14T04:38:16.899Z,928.97
2018-05-14T04:39:48.705Z,928.91
2018-05-14T04:41:20.516Z,928.95
2018-05-14T04:42:52.332Z,928.90
2018-05-14T04:44:24.239Z,928.93
2018-05-14T04:45:56.421Z,928.95
2018-05-14T04:47:27.974Z,928.98
2018-05-14T04:48:59.572Z,929.01
2018-05-14T04:50:31.484Z,928.95
2018-05-14T04:52:03.195Z,928.97
2018-05-14T04:53:35.006Z,928.88
2018-05-14T04:55:06.818Z,928.86
2018-05-14T04:56:38.627Z,928.85
2018-05-14T04:58:10.439Z,928.82
2018-05-14T04:59:42.250Z,928.85
2018-05-14T05:01:14.061Z,928.86
2018-05-14T05:02:45.972Z,928.79
2018-05-14T05:05:50.100Z,928.77
2018-05-14T05:07:21.304Z,928.77
2018-05-14T05:08:53.216Z,928.74
2018-05-14T05:10:24.964Z,928.78
2018-05-14T05:11:56.737Z,928.79
2018-05-14T05:13:28.548Z,928.79
2018-05-14T05:15:00.610Z,928.84
2018-05-14T05:16:32.170Z,928.90
2018-05-14T05:18:03.980Z,928.88
2018-05-14T05:19:35.791Z,928.89
2018-05-14T05:21:07.752Z,928.93
2018-05-14T05:22:39.416Z,928.87
2018-05-14T05:24:11.223Z,928.90
2018-05-14T05:25:43.034Z,928.86
2018-05-14T05:27:14.947Z,928.88
2018-05-14T05:28:53.863Z,928.81
2018-05-14T05:30:19.004Z,928.81
2018-05-14T05:31:50.277Z,928.77
2018-05-14T05:33:22.186Z,928.78
2018-05-14T05:34:53.897Z,928.77
2018-05-14T05:36:25.707Z,928.72
2018-05-14T05:37:57.604Z,928.74
2018-05-14T05:41:01.745Z,928.76
2018-05-14T05:42:32.948Z,928.77
2018-05-14T05:44:04.758Z,928.78
2018-05-14T05:45:36.669Z,928.75
2018-05-14T05:47:08.385Z,928.76
2018-05-14T05:48:40.193Z,928.74
2018-05-14T05:50:11.998Z,928.73
2018-05-14T05:51:43.808Z,928.72
2018-05-14T05:53:15.619Z,928.75
2018-05-14T05:54:47.430Z,928.70
2018-05-14T05:56:19.243Z,928.63
2018-05-14T05:57:51.049Z,928.58
2018-05-14T05:59:22.859Z,928.53
2018-05-14T06:00:54.671Z,928.46
2018-05-14T06:02:26.478Z,928.50
2018-05-14T06:03:58.589Z,928.52
2018-05-14T06:05:30.099Z,928.45
2018-05-14T06:07:02.784Z,928.47
2018-05-14T06:08:33.718Z,928.44
2018-05-14T06:10:05.528Z,928.42
2018-05-14T06:11:37.338Z,928.42
2018-05-14T06:13:09.149Z,928.42
2018-05-14T06:14:40.957Z,928.39
2018-05-14T06:16:13.018Z,928.41
2018-05-14T06:17:44.577Z,928.38
2018-05-14T06:19:16.387Z,928.42
2018-05-14T06:20:48.197Z,928.42
2018-05-14T06:22:20.157Z,928.43
2018-05-14T06:23:51.818Z,928.42
2018-05-14T06:25:23.628Z,928.39
2018-05-14T06:26:55.437Z,928.43
2018-05-14T06:28:27.246Z,928.43
2018-05-14T06:29:59.056Z,928.42
2018-05-14T06:31:30.867Z,928.39
2018-05-14T06:33:02.679Z,928.40
2018-05-14T06:34:34.587Z,928.37
2018-05-14T06:36:06.299Z,928.42
2018-05-14T06:37:38.108Z,928.52
2018-05-14T06:39:10.445Z,928.52
2018-05-14T06:40:42.027Z,928.56
2018-05-14T06:42:13.537Z,928.58
2018-05-14T06:43:45.348Z,928.66
2018-05-14T06:45:17.155Z,928.66
2018-05-14T06:46:49.215Z,928.62
2018-05-14T06:48:20.775Z,928.64
2018-05-14T06:49:52.603Z,928.61
2018-05-14T06:51:24.395Z,928.66
2018-05-14T06:52:56.205Z,928.70
2018-05-14T06:54:28.016Z,928.64
2018-05-14T06:55:59.826Z,928.58
2018-05-14T06:57:31.635Z,928.59
2018-05-14T06:59:03.548Z,928.57
2018-05-14T07:00:35.256Z,928.56
2018-05-14T07:02:07.071Z,928.57
2018-05-14T07:03:38.877Z,928.56
2018-05-14T07:05:10.788Z,928.57
2018-05-14T07:06:42.498Z,928.56
2018-05-14T07:08:14.850Z,928.59
2018-05-14T07:09:46.120Z,928.60
2018-05-14T07:11:17.931Z,928.58
2018-05-14T07:12:49.741Z,928.59
2018-05-14T07:14:21.551Z,928.58
2018-05-14T07:15:53.361Z,928.55
2018-05-14T07:17:25.272Z,928.57
2018-05-14T07:18:56.983Z,928.58
2018-05-14T07:20:28.793Z,928.54
2018-05-14T07:22:00.604Z,928.54
2018-05-14T07:23:32.416Z,928.53
2018-05-14T07:25:04.233Z,928.55
2018-05-14T07:26:36.037Z,928.59
2018-05-14T07:28:07.847Z,928.60
2018-05-14T07:29:39.660Z,928.62
2018-05-14T07:31:11.468Z,928.59
2018-05-14T07:32:43.279Z,928.64
2018-05-14T07:34:15.093Z,928.64
2018-05-14T07:35:47.102Z,928.70
2018-05-14T07:37:18.717Z,928.72
2018-05-14T07:38:50.525Z,928.70
2018-05-14T07:40:22.362Z,928.69
2018-05-14T07:41:54.142Z,928.67
2018-05-14T07:43:25.953Z,928.69
2018-05-14T07:44:57.763Z,928.65
2018-05-14T07:46:29.574Z,928.62
2018-05-14T07:48:01.638Z,928.68
2018-05-14T07:49:33.194Z,928.64
2018-05-14T07:51:05.005Z,928.68
2018-05-14T07:52:40.455Z,928.69
2018-05-14T07:55:41.044Z,928.73
2018-05-14T07:57:12.247Z,928.73
2018-05-14T07:58:44.056Z,928.78
2018-05-14T08:00:15.920Z,928.75
2018-05-14T08:01:47.678Z,928.72
2018-05-14T08:03:19.487Z,928.69
2018-05-14T08:04:51.298Z,928.68
2018-05-14T08:06:23.209Z,928.71
2018-05-14T08:09:27.338Z,928.70
2018-05-14T08:10:58.539Z,928.75
2018-05-14T08:12:30.650Z,928.72
2018-05-14T08:14:02.161Z,928.66
2018-05-14T08:15:40.852Z,928.68
2018-05-14T08:17:05.782Z,928.68
2018-05-14T08:18:37.844Z,928.57
2018-05-14T08:20:09.402Z,928.55
2018-05-14T08:21:41.211Z,928.61
2018-05-14T08:23:13.023Z,928.62
2018-05-14T08:24:44.837Z,928.65
2018-05-14T08:26:16.643Z,928.72
2018-05-14T08:27:48.455Z,928.67
2018-05-14T08:29:20.272Z,928.65
2018-05-14T08:30:52.174Z,928.66
2018-05-14T08:32:23.885Z,928.61
2018-05-14T08:33:55.696Z,928.62
2018-05-14T08:35:27.510Z,928.69
2018-05-14T08:36:59.416Z,928.82
2018-05-14T08:38:31.127Z,928.83
2018-05-14T08:40:02.939Z,928.90
2018-05-14T08:41:34.747Z,928.92
2018-05-14T08:43:06.708Z,928.99
2018-05-14T08:44:38.368Z,929.01
2018-05-14T08:46:10.179Z,929.03
2018-05-14T08:47:41.991Z,929.06
2018-05-14T08:49:13.902Z,929.10
2018-05-14T08:50:45.610Z,929.09
2018-05-14T08:52:18.904Z,929.09
2018-05-14T08:53:49.228Z,929.07
2018-05-14T08:55:21.043Z,929.03
2018-05-14T08:56:52.849Z,929.06
2018-05-14T08:58:24.660Z,929.05
2018-05-14T08:59:56.470Z,929.05
2018-05-14T09:01:28.281Z,929.02
2018-05-14T09:03:00.094Z,929.02
2018-05-14T09:04:45.529Z,928.98
2018-05-14T09:06:03.713Z,929.01
2018-05-14T09:09:09.908Z,929.04
2018-05-14T09:10:39.145Z,929.04
2018-05-14T09:12:10.958Z,929.07
2018-05-14T09:13:42.766Z,929.07
2018-05-14T09:15:14.577Z,929.08
2018-05-14T09:16:47.971Z,929.18
2018-05-14T09:18:18.197Z,929.18
2018-05-14T09:19:50.008Z,929.20
2018-05-14T09:21:21.918Z,929.22
2018-05-14T09:22:55.928Z,929.22
2018-05-14T09:24:25.440Z,929.25
2018-05-14T09:25:58.292Z,929.26
2018-05-14T09:29:03.903Z,929.26
2018-05-14T09:30:32.891Z,929.21
2018-05-14T09:32:04.491Z,929.20
2018-05-14T09:33:36.301Z,929.17
2018-05-14T09:35:08.111Z,929.17
2018-05-14T09:36:39.927Z,929.21
2018-05-14T09:38:11.735Z,929.25
2018-05-14T09:39:43.645Z,929.31
2018-05-14T09:41:15.354Z,929.31
2018-05-14T09:42:47.163Z,929.35
2018-05-14T09:44:18.976Z,929.39
2018-05-14T09:45:50.937Z,929.43
2018-05-14T09:47:22.594Z,929.46
2018-05-14T09:48:54.403Z,929.49
2018-05-14T09:50:26.308Z,929.52
2018-05-14T09:51:58.124Z,929.50
2018-05-14T09:53:29.835Z,929.58
2018-05-14T09:55:01.645Z,929.61
2018-05-14T09:56:33.456Z,929.62
2018-05-14T09:58:05.268Z,929.62
2018-05-14T09:59:37.078Z,929.67
2018-05-14T10:01:08.892Z,929.73
2018-05-14T10:02:40.701Z,929.70
2018-05-14T10:04:12.611Z,929.73
2018-05-14T10:05:44.322Z,929.70
2018-05-14T10:07:16.134Z,929.68
2018-05-14T10:08:47.946Z,929.70
2018-05-14T10:10:19.858Z,929.75
2018-05-14T10:11:51.573Z,929.83
2018-05-14T10:13:23.383Z,929.91
2018-05-14T10:14:55.195Z,930.00
2018-05-14T10:16:27.005Z,929.95
2018-05-14T10:17:58.818Z,930.02
2018-05-14T10:19:30.703Z,929.98
2018-05-14T10:21:02.442Z,930.01
2018-05-14T10:22:34.355Z,929.97
2018-05-14T10:24:06.067Z,930.09
2018-05-14T10:25:37.883Z,930.11
2018-05-14T10:27:09.689Z,930.22
2018-05-14T10:28:41.501Z,930.21
2018-05-14T10:30:13.314Z,930.24
2018-05-14T10:31:45.126Z,930.26
2018-05-14T10:33:16.936Z,930.27
2018-05-14T10:34:48.749Z,930.24
2018-05-14T10:36:20.558Z,930.28
2018-05-14T10:39:24.785Z,930.25
2018-05-14T10:40:56.190Z,930.25
2018-05-14T10:42:27.799Z,930.30
2018-05-14T10:45:32.033Z,930.30
2018-05-14T10:47:03.235Z,930.33
2018-05-14T10:48:35.046Z,930.28
2018-05-14T10:50:06.857Z,930.21
2018-05-14T10:51:38.672Z,930.22
2018-05-14T10:53:10.485Z,930.25
2018-05-14T11:01:01.964Z,930.26
2018-05-14T11:02:33.173Z,930.24
2018-05-14T11:05:37.398Z,930.35
2018-05-14T11:07:12.268Z,930.33
2018-05-14T11:08:40.414Z,930.42
2018-05-14T11:10:13.522Z,930.42
2018-05-14T11:11:44.037Z,930.47
2018-05-14T11:13:15.854Z,930.49
2018-05-14T11:16:20.183Z,930.57
2018-05-14T11:17:52.436Z,930.50
2018-05-14T11:19:29.417Z,930.49
2018-05-14T11:20:55.115Z,930.55
2018-05-14T11:22:26.725Z,930.47
2018-05-14T11:23:58.541Z,930.41
2018-05-14T11:25:34.723Z,930.39
2018-05-14T11:27:02.162Z,930.42
2018-05-14T11:28:33.977Z,930.43
2018-05-14T11:30:05.787Z,930.44
2018-05-14T11:31:37.600Z,930.50
2018-05-14T11:33:09.465Z,930.51
2018-05-14T11:34:41.326Z,930.57
2018-05-14T11:36:13.038Z,930.56
2018-05-14T11:37:45.053Z,930.69
2018-05-14T11:39:16.666Z,930.60
2018-05-14T11:40:48.476Z,930.62
2018-05-14T11:42:20.314Z,930.71
2018-05-14T11:43:52.162Z,930.67
2018-05-14T11:45:23.913Z,930.68
2018-05-14T11:46:55.728Z,930.75
2018-05-14T11:48:27.540Z,930.63
2018-05-14T11:49:59.376Z,930.51
2018-05-14T11:51:31.194Z,930.55
2018-05-14T11:56:06.609Z,930.46
2018-05-14T11:57:38.426Z,930.36
2018-05-14T11:59:10.238Z,930.34
2018-05-14T12:00:42.693Z,930.38
2018-05-14T12:02:13.869Z,930.44
2018-05-14T12:03:45.684Z,930.38
2018-05-14T12:05:17.501Z,930.56
2018-05-14T12:06:49.317Z,930.28
2018-05-14T12:08:21.133Z,930.40
2018-05-14T12:12:56.784Z,930.27
2018-05-14T12:14:28.401Z,930.23
2018-05-14T12:16:00.253Z,930.38
2018-05-14T12:17:32.039Z,930.44
2018-05-14T12:19:03.852Z,930.40
2018-05-14T12:20:35.669Z,930.46
2018-05-14T12:23:39.354Z,930.53
2018-05-14T12:25:11.126Z,930.51
2018-05-14T12:26:43.445Z,930.62
2018-05-14T12:28:14.757Z,930.57
2018-05-14T12:29:46.876Z,930.53
2018-05-14T12:31:18.489Z,930.61
2018-05-14T12:32:50.721Z,930.53
2018-05-14T12:34:22.023Z,930.59
2018-05-14T12:35:56.245Z,930.68
2018-05-14T12:37:25.716Z,930.82
2018-05-14T12:40:29.288Z,930.90
2018-05-14T12:42:01.139Z,930.90
2018-05-14T12:43:33.022Z,930.81
2018-05-14T12:45:04.755Z,930.88
2018-05-14T12:46:36.757Z,930.88
2018-05-14T12:48:08.800Z,930.84
2018-05-14T12:49:40.591Z,930.93
2018-05-14T12:51:13.924Z,930.87
2018-05-14T12:52:44.555Z,930.86
2018-05-14T12:54:15.635Z,930.72
2018-05-14T12:55:47.762Z,930.69
2018-05-14T12:57:19.323Z,930.92
2018-05-14T12:58:51.083Z,930.91
2018-05-14T13:00:22.900Z,930.94
2018-05-14T13:01:55.022Z,930.87
2018-05-14T13:04:58.346Z,930.79
2018-05-14T13:06:30.200Z,930.73
2018-05-14T13:08:02.129Z,930.81
2018-05-14T13:09:33.860Z,930.81
2018-05-14T13:11:05.609Z,930.82
2018-05-14T13:12:37.427Z,930.92
2018-05-14T13:14:09.245Z,930.83
2018-05-14T13:15:41.256Z,930.92
2018-05-14T13:17:12.876Z,930.89
2018-05-14T13:18:44.689Z,930.93
2018-05-14T13:21:48.627Z,930.96
2018-05-14T13:23:20.136Z,931.00
2018-05-14T13:26:23.771Z,931.00
2018-05-14T13:27:55.588Z,930.80
2018-05-14T13:30:59.830Z,930.65
2018-05-14T13:32:31.041Z,930.66
2018-05-14T13:35:34.781Z,930.59
2018-05-14T13:37:07.136Z,930.62
2018-05-14T13:38:41.893Z,930.62
2018-05-14T13:40:10.231Z,930.65
2018-05-14T13:41:41.951Z,930.60
2018-05-14T13:43:13.768Z,930.60
2018-05-14T13:44:45.588Z,930.59
2018-05-14T13:46:17.461Z,930.55
2018-05-14T13:47:49.230Z,930.36
2018-05-14T13:49:21.338Z,930.25
2018-05-14T13:51:00.084Z,930.27
2018-05-14T13:52:24.690Z,930.32
2018-05-14T13:57:03.196Z,930.27
2018-05-14T13:58:31.969Z,930.14
2018-05-14T14:00:03.794Z,929.99
2018-05-14T14:01:35.610Z,930.05
2018-05-14T14:04:39.402Z,929.92
2018-05-14T14:06:11.072Z,929.80
2018-05-14T14:10:46.540Z,929.82
2018-05-14T14:12:18.358Z,929.75
2018-05-14T14:13:50.811Z,929.88
2018-05-14T14:15:22.936Z,929.80
2018-05-14T14:16:54.386Z,929.71
2018-05-14T14:18:26.174Z,929.72
2018-05-14T14:19:57.465Z,929.67
2018-05-14T14:21:29.592Z,929.63
2018-05-14T14:24:33.545Z,929.67
2018-05-14T14:26:04.754Z,929.66
2018-05-14T14:27:37.513Z,929.66
2018-05-14T14:29:08.958Z,929.57
2018-05-14T14:30:40.767Z,929.50
2018-05-14T14:32:12.142Z,929.50
2018-05-14T14:33:44.396Z,929.39
2018-05-14T14:35:15.684Z,929.27
2018-05-14T14:38:19.357Z,929.32
2018-05-14T14:39:51.148Z,929.32
2018-05-14T14:41:22.970Z,929.36
2018-05-14T14:44:26.616Z,929.26
2018-05-14T14:45:58.433Z,929.42
2018-05-14T14:47:30.559Z,929.26
2018-05-14T14:49:02.076Z,929.35
2018-05-14T14:50:34.754Z,929.29
2018-05-14T14:52:06.854Z,929.34
2018-05-14T14:53:37.747Z,929.29
2018-05-14T14:55:09.367Z,929.35
2018-05-14T14:56:41.181Z,929.25
2018-05-14T14:58:13.010Z,929.18
2018-05-14T14:59:44.825Z,929.28
2018-05-14T15:01:17.177Z,929.10
2018-05-14T15:02:48.670Z,929.11
2018-05-14T15:04:20.289Z,929.13
2018-05-14T15:05:52.109Z,929.10
2018-05-14T15:07:23.930Z,929.00
2018-05-14T15:08:56.431Z,929.03
2018-05-14T15:10:27.571Z,928.91
2018-05-14T15:11:59.420Z,928.95
2018-05-14T15:15:03.483Z,928.87
2018-05-14T15:16:34.850Z,929.01
2018-05-14T15:18:06.669Z,928.85
2018-05-14T15:19:38.492Z,928.91
2018-05-14T15:21:10.316Z,928.92
2018-05-14T15:22:42.134Z,928.87
2018-05-14T15:27:18.302Z,928.74
2018-05-14T15:28:49.416Z,928.61
2018-05-14T15:30:21.242Z,928.75
2018-05-14T15:31:53.077Z,928.76
2018-05-14T15:33:24.884Z,928.67
2018-05-14T15:34:56.717Z,928.65
2018-05-14T15:36:28.530Z,928.66
2018-05-14T15:38:00.353Z,928.65
2018-05-14T15:41:04.014Z,928.53
2018-05-14T15:42:35.823Z,928.48
2018-05-14T15:44:07.646Z,928.47
2018-05-14T15:45:39.471Z,928.40
2018-05-14T15:47:11.395Z,928.47
2018-05-14T15:48:43.917Z,928.38
2018-05-14T15:53:23.069Z,928.51
2018-05-14T15:56:22.874Z,928.42
2018-05-14T15:57:54.785Z,928.37
2018-05-14T15:59:25.875Z,928.36
2018-05-14T16:00:58.349Z,928.35
2018-05-14T16:04:27.623Z,928.24
2018-05-14T16:07:38.754Z,928.34
2018-05-14T16:08:36.819Z,928.27
2018-05-14T16:10:08.673Z,928.36
2018-05-14T16:11:41.158Z,928.18
2018-05-14T16:13:12.288Z,928.24
2018-05-14T16:14:44.150Z,928.29
2018-05-14T16:16:15.937Z,928.26
2018-05-14T16:17:47.862Z,928.29
2018-05-14T16:19:19.587Z,928.27
2018-05-14T16:20:51.462Z,928.27
2018-05-14T16:22:23.238Z,928.29
2018-05-14T16:29:28.836Z,927.91
2018-05-14T16:30:15.287Z,928.01
2018-05-14T16:33:30.550Z,927.79
2018-05-14T16:34:49.639Z,927.81
2018-05-14T16:36:21.464Z,927.78
2018-05-14T16:37:53.294Z,927.84
2018-05-14T16:39:25.112Z,927.76
2018-05-14T16:40:57.152Z,927.73
2018-05-14T16:42:28.759Z,927.66
2018-05-14T16:44:00.583Z,927.59
2018-05-14T16:45:32.409Z,927.54
2018-05-14T16:47:04.232Z,927.53
2018-05-14T16:48:36.158Z,927.59
2018-05-14T16:50:07.885Z,927.64
2018-05-14T16:51:39.900Z,927.67
2018-05-14T16:53:12.749Z,927.67
2018-05-14T16:54:44.953Z,927.55
2018-05-14T16:56:15.213Z,927.70
2018-05-14T16:57:47.058Z,927.73
2018-05-14T17:00:50.756Z,927.50
2018-05-14T17:02:22.682Z,927.41
2018-05-14T17:03:54.734Z,927.29
2018-05-14T17:05:26.124Z,927.28
2018-05-14T17:06:57.947Z,927.29
2018-05-14T17:08:29.771Z,927.23
2018-05-14T17:10:01.798Z,927.24
2018-05-14T17:13:05.767Z,927.16
2018-05-14T17:14:37.271Z,927.15
2018-05-14T17:16:08.882Z,927.21
2018-05-14T17:17:41.359Z,927.26
2018-05-14T17:20:44.956Z,927.26
2018-05-14T17:22:16.752Z,927.26
2018-05-14T17:23:47.993Z,927.30
2018-05-14T17:25:19.816Z,927.25
2018-05-14T17:26:51.639Z,927.13
2018-05-14T17:28:23.970Z,927.05
2018-05-14T17:29:55.952Z,927.08
2018-05-14T17:31:27.104Z,927.15
2018-05-14T17:32:58.928Z,927.14
2018-05-14T17:34:30.953Z,927.24
2018-05-14T17:36:02.578Z,927.15
2018-05-14T17:37:34.495Z,927.11
2018-05-14T17:39:06.225Z,927.04
2018-05-14T17:40:38.040Z,927.13
2018-05-14T17:42:09.863Z,927.16
2018-05-14T17:43:41.788Z,927.15
2018-05-14T17:45:13.510Z,927.15
2018-05-14T17:46:45.356Z,927.15
2018-05-14T17:48:17.157Z,927.07
2018-05-14T17:49:48.978Z,927.06
2018-05-14T17:52:53.282Z,926.98
2018-05-14T17:54:24.485Z,926.96
2018-05-14T17:55:56.373Z,926.86
2018-05-14T17:57:28.097Z,926.96
2018-05-14T18:00:31.744Z,927.03
2018-05-14T18:03:35.389Z,927.03
2018-05-14T18:05:07.265Z,927.11
2018-05-14T18:06:39.034Z,927.08
2018-05-14T18:08:10.857Z,926.94
2018-05-14T18:09:42.837Z,926.89
2018-05-14T18:12:47.738Z,926.85
2018-05-14T18:15:51.491Z,926.91
2018-05-14T18:17:23.021Z,926.95
2018-05-14T18:20:26.364Z,926.92
2018-05-14T18:21:57.979Z,926.88
2018-05-14T18:23:29.906Z,926.90
2018-05-14T18:25:00.997Z,926.90
2018-05-14T18:26:32.713Z,926.86
2018-05-14T18:28:04.532Z,926.87
2018-05-14T18:29:36.352Z,926.86
2018-05-14T18:31:08.191Z,926.87
2018-05-14T18:32:39.993Z,926.78
2018-05-14T18:34:11.916Z,926.89
2018-05-14T18:35:43.636Z,926.86
2018-05-14T18:37:15.659Z,926.82
2018-05-14T18:38:47.272Z,926.84
2018-05-14T18:40:19.095Z,926.81
2018-05-14T18:41:50.914Z,926.87
2018-05-14T18:43:22.800Z,926.84
2018-05-14T18:44:54.553Z,926.83
2018-05-14T18:46:26.462Z,926.87
2018-05-14T18:47:58.195Z,926.87
2018-05-14T18:49:30.017Z,926.85
2018-05-14T18:51:01.845Z,926.84
2018-05-14T18:52:33.755Z,926.87
2018-05-14T18:54:05.476Z,926.88
2018-05-14T18:55:37.416Z,926.90
2018-05-14T18:57:09.232Z,926.84
2018-05-14T18:58:40.935Z,926.85
2018-05-14T19:00:12.756Z,926.91
2018-05-14T19:01:44.576Z,926.88
2018-05-14T19:03:16.396Z,926.98
2018-05-14T19:04:49.541Z,927.01
2018-05-14T19:07:52.463Z,927.03
2018-05-14T19:09:23.675Z,926.99
2018-05-14T19:10:55.597Z,926.96
2018-05-14T19:12:27.387Z,927.01
2018-05-14T19:13:59.134Z,927.07
2018-05-14T19:15:30.984Z,926.98
2018-05-14T19:17:02.773Z,926.98
2018-05-14T19:18:34.905Z,926.88
2018-05-14T19:20:06.412Z,926.97
2018-05-14T19:21:38.229Z,927.00
2018-05-14T19:23:10.049Z,926.92
2018-05-14T19:24:41.867Z,926.98
2018-05-14T19:26:13.684Z,926.95
2018-05-14T19:27:45.504Z,926.93
2018-05-14T19:29:17.424Z,926.94
2018-05-14T19:30:49.161Z,926.88
2018-05-14T19:32:21.009Z,926.94
2018-05-14T19:33:52.776Z,926.96
2018-05-14T19:35:24.898Z,926.97
2018-05-14T19:36:56.415Z,927.01
2018-05-14T19:38:28.269Z,926.97
2018-05-14T19:40:00.045Z,926.94
2018-05-14T19:41:31.865Z,927.00
2018-05-14T19:43:03.720Z,926.96
2018-05-14T19:44:36.022Z,927.01
2018-05-14T19:46:07.313Z,927.07
2018-05-14T19:47:39.330Z,927.05
2018-05-14T19:49:11.108Z,927.05
2018-05-14T19:52:14.579Z,927.04
2018-05-14T19:53:46.427Z,927.01
2018-05-14T19:55:18.217Z,927.03
2018-05-14T19:56:50.085Z,927.03
2018-05-14T19:58:21.844Z,927.02
2018-05-14T19:59:53.659Z,927.00
2018-05-14T20:01:25.474Z,926.96
2018-05-14T20:02:57.289Z,927.03
2018-05-14T20:04:29.112Z,927.06
2018-05-14T20:06:01.026Z,927.09
2018-05-14T20:07:32.737Z,927.06
2018-05-14T20:09:04.653Z,927.03
2018-05-14T20:10:36.367Z,927.02
2018-05-14T20:12:08.180Z,927.02
2018-05-14T20:13:39.994Z,927.07
2018-05-14T20:15:11.811Z,927.10
2018-05-14T20:16:43.622Z,927.11
2018-05-14T20:18:15.462Z,927.13
2018-05-14T20:19:47.251Z,927.17
2018-05-14T20:21:19.116Z,927.15
2018-05-14T20:22:50.958Z,927.14
2018-05-14T20:24:22.820Z,927.17
2018-05-14T20:25:54.509Z,927.17
2018-05-14T20:27:26.325Z,927.13
2018-05-14T20:28:58.209Z,927.24
2018-05-14T20:30:29.950Z,927.21
2018-05-14T20:32:01.766Z,927.23
2018-05-14T20:33:33.580Z,927.29
2018-05-14T20:35:05.393Z,927.22
2018-05-14T20:36:37.945Z,927.17
2018-05-14T20:38:09.021Z,927.17
2018-05-14T20:39:41.074Z,927.21